Time;durP1;ratioP1;P1;durP2;ratioP2;P2;SDS_P1;SDS_P2;PMS_P1;PMS_P2;Temp;Humidity;BMP_temperature;BMP_pressure;BME280_temperature;BME280_humidity;BME280_pressure;Samples;Min_cycle;Max_cycle;Signal;HPM_P1;HPM_P2
2022/10/20 00:00:07;;;;;;;0.20;0.10;;;;;;;;;;5026040;28;20123;-86
2022/10/20 00:02:33;;;;;;;0.20;0.10;;;;;;;;;;5059243;28;20037;-84
2022/10/20 00:04:59;;;;;;;0.20;0.10;;;;;;;;;;5043258;28;20663;-85
2022/10/20 00:07:25;;;;;;;0.20;0.10;;;;;;;;;;5039015;28;20044;-85
2022/10/20 00:09:51;;;;;;;0.20;0.10;;;;;;;;;;5025515;28;20111;-84
2022/10/20 00:12:17;;;;;;;0.20;0.10;;;;;;;;;;5057352;28;20064;-85
2022/10/20 00:14:43;;;;;;;0.20;0.13;;;;;;;;;;5045140;28;20033;-86
2022/10/20 00:17:09;;;;;;;0.20;0.10;;;;;;;;;;5028275;28;20036;-84
2022/10/20 00:19:35;;;;;;;0.20;0.10;;;;;;;;;;5040780;28;20054;-85
2022/10/20 00:22:01;;;;;;;0.20;0.10;;;;;;;;;;5042446;28;20123;-85
2022/10/20 00:24:27;;;;;;;0.20;0.10;;;;;;;;;;5044384;28;20388;-85
2022/10/20 00:26:53;;;;;;;0.20;0.10;;;;;;;;;;5045453;28;20481;-85
2022/10/20 00:29:19;;;;;;;0.20;0.10;;;;;;;;;;5039248;28;20174;-85
2022/10/20 00:31:45;;;;;;;0.20;0.10;;;;;;;;;;5042852;28;20078;-84
2022/10/20 00:34:11;;;;;;;0.20;0.10;;;;;;;;;;5043459;28;20106;-87
2022/10/20 00:36:38;;;;;;;0.20;0.10;;;;;;;;;;5027564;28;20063;-85
2022/10/20 00:39:05;;;;;;;0.20;0.10;;;;;;;;;;5040853;28;20457;-87
2022/10/20 00:41:32;;;;;;;0.20;0.10;;;;;;;;;;5056503;28;20123;-85
2022/10/20 00:43:59;;;;;;;0.20;0.10;;;;;;;;;;5041319;28;20040;-86
2022/10/20 00:46:31;;;;;;;0.20;0.10;;;;;;;;;;5041089;28;20039;-85
2022/10/20 00:49:00;;;;;;;0.20;0.10;;;;;;;;;;5055375;28;20044;-86
2022/10/20 00:51:27;;;;;;;0.20;0.10;;;;;;;;;;5046397;28;20032;-86
2022/10/20 00:53:55;;;;;;;0.20;0.10;;;;;;;;;;5042189;28;20030;-86
2022/10/20 00:56:22;;;;;;;0.20;0.10;;;;;;;;;;5042104;28;20037;-86
2022/10/20 00:58:49;;;;;;;0.20;0.10;;;;;;;;;;5041792;28;20264;-85
2022/10/20 01:01:15;;;;;;;0.20;0.10;;;;;;;;;;5046658;28;20041;-86
2022/10/20 01:03:46;;;;;;;0.20;0.10;;;;;;;;;;5025776;28;20097;-86
2022/10/20 01:06:14;;;;;;;0.20;0.10;;;;;;;;;;5042894;28;20120;-86
2022/10/20 01:08:40;;;;;;;0.20;0.10;;;;;;;;;;5042448;28;20044;-86
2022/10/20 01:11:06;;;;;;;0.20;0.10;;;;;;;;;;5027836;28;20155;-85
2022/10/20 01:13:54;;;;;;;0.20;0.10;;;;;;;;;;5038808;28;20122;-86
2022/10/20 01:16:39;;;;;;;0.20;0.10;;;;;;;;;;5057382;28;20097;-86
2022/10/20 01:19:37;;;;;;;0.20;0.10;;;;;;;;;;5042238;28;20036;-86
2022/10/20 01:22:06;;;;;;;0.25;0.13;;;;;;;;;;5041125;28;20036;-86
2022/10/20 01:24:35;;;;;;;0.20;0.10;;;;;;;;;;5058024;28;20241;-86
2022/10/20 01:27:13;;;;;;;0.20;0.10;;;;;;;;;;5043816;28;20554;-86
2022/10/20 01:29:43;;;;;;;0.20;0.10;;;;;;;;;;5040413;28;20298;-84
2022/10/20 01:32:24;;;;;;;0.20;0.10;;;;;;;;;;5039992;28;20037;-86
2022/10/20 01:34:56;;;;;;;0.20;0.10;;;;;;;;;;5038364;28;20049;-84
2022/10/20 01:37:25;;;;;;;0.20;0.10;;;;;;;;;;5055205;28;20048;-85
2022/10/20 01:40:06;;;;;;;0.20;0.10;;;;;;;;;;5050769;28;20052;-86
2022/10/20 01:42:32;;;;;;;0.20;0.10;;;;;;;;;;5057694;28;20036;-85
2022/10/20 01:45:00;;;;;;;0.20;0.10;;;;;;;;;;5055996;28;20090;-86
2022/10/20 01:47:28;;;;;;;0.20;0.00;;;;;;;;;;5045306;28;20036;-85
2022/10/20 01:49:55;;;;;;;0.20;0.10;;;;;;;;;;5039649;28;20036;-85
2022/10/20 01:52:22;;;;;;;0.20;0.10;;;;;;;;;;5045927;28;20115;-86
2022/10/20 01:54:48;;;;;;;0.20;0.10;;;;;;;;;;5063937;22;20049;-87
2022/10/20 01:57:33;;;;;;;0.20;0.10;;;;;;;;;;5032275;28;20182;-85
2022/10/20 02:00:10;;;;;;;0.20;0.10;;;;;;;;;;5050481;28;20072;-87
2022/10/20 02:02:45;;;;;;;0.20;0.10;;;;;;;;;;5032564;28;20045;-86
2022/10/20 02:05:18;;;;;;;0.20;0.10;;;;;;;;;;5021579;28;20071;-86
2022/10/20 02:07:44;;;;;;;0.20;0.10;;;;;;;;;;5016755;28;20111;-86
2022/10/20 02:10:32;;;;;;;0.20;0.10;;;;;;;;;;5001829;28;20434;-84
2022/10/20 02:13:00;;;;;;;0.20;0.10;;;;;;;;;;5021379;28;20049;-85
2022/10/20 02:15:27;;;;;;;0.20;0.10;;;;;;;;;;5022437;28;20071;-85
2022/10/20 02:17:57;;;;;;;0.20;0.03;;;;;;;;;;5016929;28;20372;-86
2022/10/20 02:20:23;;;;;;;0.20;0.10;;;;;;;;;;5013511;28;20099;-85
2022/10/20 02:22:49;;;;;;;0.20;0.10;;;;;;;;;;5006568;28;20451;-86
2022/10/20 02:25:16;;;;;;;0.20;0.10;;;;;;;;;;4999860;28;20041;-86
2022/10/20 02:27:45;;;;;;;0.20;0.10;;;;;;;;;;5039558;28;20041;-84
2022/10/20 02:30:13;;;;;;;0.20;0.03;;;;;;;;;;5018570;28;20124;-85
2022/10/20 02:32:40;;;;;;;0.20;0.10;;;;;;;;;;5035561;28;20041;-85
2022/10/20 02:35:11;;;;;;;0.30;0.20;;;;;;;;;;5035380;28;20030;-85
2022/10/20 02:37:38;;;;;;;0.20;0.10;;;;;;;;;;5024915;28;20069;-86
2022/10/20 02:40:04;;;;;;;0.20;0.10;;;;;;;;;;5017078;28;20338;-83
2022/10/20 02:42:30;;;;;;;0.20;0.10;;;;;;;;;;5022618;28;20144;-86
2022/10/20 02:44:56;;;;;;;0.20;0.10;;;;;;;;;;5006231;28;20049;-86
2022/10/20 02:47:22;;;;;;;0.20;0.10;;;;;;;;;;5018890;28;20092;-86
2022/10/20 02:49:48;;;;;;;0.20;0.10;;;;;;;;;;5021280;28;20108;-86
2022/10/20 02:52:14;;;;;;;0.20;0.10;;;;;;;;;;5015592;28;20515;-85
2022/10/20 02:54:40;;;;;;;0.20;0.10;;;;;;;;;;5035215;28;20051;-85
2022/10/20 02:57:07;;;;;;;0.20;0.10;;;;;;;;;;5031503;28;20441;-86
2022/10/20 02:59:33;;;;;;;0.20;0.10;;;;;;;;;;5011715;28;20063;-85
2022/10/20 03:01:59;;;;;;;0.20;0.10;;;;;;;;;;5005853;28;20045;-82
2022/10/20 03:04:25;;;;;;;0.20;0.10;;;;;;;;;;5019270;28;20403;-86
2022/10/20 03:06:51;;;;;;;0.20;0.10;;;;;;;;;;5004175;28;20143;-85
2022/10/20 03:09:17;;;;;;;0.20;0.10;;;;;;;;;;5033233;28;20033;-85
2022/10/20 03:11:43;;;;;;;0.20;0.10;;;;;;;;;;5039151;28;20127;-84
2022/10/20 03:14:10;;;;;;;0.20;0.10;;;;;;;;;;5034046;28;20491;-85
2022/10/20 03:16:36;;;;;;;0.20;0.10;;;;;;;;;;5026486;28;20044;-85
2022/10/20 03:19:02;;;;;;;0.20;0.10;;;;;;;;;;5019785;28;20037;-87
2022/10/20 03:21:28;;;;;;;0.20;0.10;;;;;;;;;;5034688;28;20088;-85
2022/10/20 03:23:54;;;;;;;0.73;0.20;;;;;;;;;;5027115;28;20048;-85
2022/10/20 03:26:20;;;;;;;0.30;0.20;;;;;;;;;;5016606;28;20587;-86
2022/10/20 03:28:46;;;;;;;0.20;0.10;;;;;;;;;;5012016;28;20439;-84
2022/10/20 03:31:13;;;;;;;0.20;0.10;;;;;;;;;;5019021;28;20086;-86
2022/10/20 03:33:41;;;;;;;0.20;0.10;;;;;;;;;;5004526;28;20037;-87
2022/10/20 03:36:08;;;;;;;0.20;0.10;;;;;;;;;;5022454;28;20028;-86
2022/10/20 03:38:34;;;;;;;0.20;0.10;;;;;;;;;;5021092;28;20037;-84
2022/10/20 03:41:00;;;;;;;0.20;0.10;;;;;;;;;;5024892;28;20107;-84
2022/10/20 03:43:26;;;;;;;0.20;0.10;;;;;;;;;;5003464;28;20510;-85
2022/10/20 03:46:01;;;;;;;0.20;0.10;;;;;;;;;;5013034;28;20069;-86
2022/10/20 03:48:27;;;;;;;0.20;0.10;;;;;;;;;;5022584;28;20498;-86
2022/10/20 03:50:53;;;;;;;0.20;0.10;;;;;;;;;;5017787;28;20515;-87
2022/10/20 03:53:19;;;;;;;0.38;0.30;;;;;;;;;;5003929;28;20487;-87
2022/10/20 03:55:45;;;;;;;0.20;0.10;;;;;;;;;;5023416;28;20030;-86
2022/10/20 03:58:11;;;;;;;0.20;0.10;;;;;;;;;;5035627;28;20045;-86
2022/10/20 04:00:37;;;;;;;0.20;0.10;;;;;;;;;;5020433;28;20057;-86
2022/10/20 04:03:03;;;;;;;0.20;0.10;;;;;;;;;;5018468;28;20120;-85
2022/10/20 04:05:29;;;;;;;0.28;0.28;;;;;;;;;;5036672;28;20041;-88
2022/10/20 04:07:55;;;;;;;0.20;0.10;;;;;;;;;;5001793;28;20505;-87
2022/10/20 04:10:21;;;;;;;0.20;0.10;;;;;;;;;;5018167;28;20479;-85
2022/10/20 04:12:48;;;;;;;0.20;0.10;;;;;;;;;;5002420;28;20116;-86
2022/10/20 04:15:17;;;;;;;0.20;0.10;;;;;;;;;;5023791;28;20036;-87
2022/10/20 04:17:43;;;;;;;0.20;0.10;;;;;;;;;;5033446;28;20047;-86
2022/10/20 04:20:10;;;;;;;0.20;0.10;;;;;;;;;;5018557;28;20040;-86
2022/10/20 04:22:42;;;;;;;0.20;0.10;;;;;;;;;;5008564;28;20132;-85
2022/10/20 04:25:10;;;;;;;0.30;0.20;;;;;;;;;;5008578;28;20410;-86
2022/10/20 04:27:37;;;;;;;0.20;0.10;;;;;;;;;;5035064;28;20510;-85
2022/10/20 04:30:03;;;;;;;0.20;0.17;;;;;;;;;;5018693;28;20571;-86
2022/10/20 04:32:29;;;;;;;0.20;0.10;;;;;;;;;;5019302;28;20069;-86
2022/10/20 04:34:55;;;;;;;0.20;0.10;;;;;;;;;;5001658;28;20033;-86
2022/10/20 04:37:21;;;;;;;0.20;0.10;;;;;;;;;;5003145;28;20045;-85
2022/10/20 04:39:49;;;;;;;0.20;0.10;;;;;;;;;;5017752;28;20056;-85
2022/10/20 04:42:16;;;;;;;0.20;0.10;;;;;;;;;;5004048;28;20041;-85
2022/10/20 04:44:42;;;;;;;0.20;0.10;;;;;;;;;;5034937;28;20083;-85
2022/10/20 04:47:08;;;;;;;0.20;0.10;;;;;;;;;;5017714;28;20040;-86
2022/10/20 04:49:34;;;;;;;0.20;0.10;;;;;;;;;;5032178;28;20037;-86
2022/10/20 04:52:00;;;;;;;0.20;0.10;;;;;;;;;;5021393;28;20040;-86
2022/10/20 04:54:26;;;;;;;0.20;0.10;;;;;;;;;;5017738;28;20040;-86
2022/10/20 04:56:52;;;;;;;0.20;0.10;;;;;;;;;;5020700;28;20581;-86
2022/10/20 04:59:18;;;;;;;0.20;0.10;;;;;;;;;;5021318;28;20053;-86
2022/10/20 05:01:44;;;;;;;0.38;0.17;;;;;;;;;;5035502;28;20036;-86
2022/10/20 05:04:11;;;;;;;0.20;0.10;;;;;;;;;;5008903;28;20527;-84
2022/10/20 05:06:37;;;;;;;0.20;0.10;;;;;;;;;;5020206;28;20079;-86
2022/10/20 05:09:04;;;;;;;0.20;0.10;;;;;;;;;;5006051;28;20041;-84
2022/10/20 05:11:31;;;;;;;0.20;0.10;;;;;;;;;;5037171;28;20098;-85
2022/10/20 05:13:57;;;;;;;0.20;0.10;;;;;;;;;;5035999;28;20076;-86
2022/10/20 05:16:23;;;;;;;0.30;0.20;;;;;;;;;;5000803;28;20037;-85
2022/10/20 05:18:52;;;;;;;0.20;0.10;;;;;;;;;;5009089;28;20036;-86
2022/10/20 05:21:20;;;;;;;0.20;0.10;;;;;;;;;;5022887;28;20045;-86
2022/10/20 05:23:46;;;;;;;0.20;0.10;;;;;;;;;;5023743;28;20388;-87
2022/10/20 05:26:14;;;;;;;0.20;0.10;;;;;;;;;;5021844;28;20407;-86
2022/10/20 05:28:43;;;;;;;0.20;0.03;;;;;;;;;;5018064;28;20049;-85
2022/10/20 05:31:09;;;;;;;0.20;0.10;;;;;;;;;;5035945;28;20049;-84
2022/10/20 05:33:35;;;;;;;0.20;0.17;;;;;;;;;;5019311;28;20041;-87
2022/10/20 05:36:09;;;;;;;0.20;0.10;;;;;;;;;;5035472;28;20037;-86
2022/10/20 05:38:38;;;;;;;0.20;0.10;;;;;;;;;;5018043;28;20403;-86
2022/10/20 05:41:08;;;;;;;0.20;0.10;;;;;;;;;;5015104;28;20037;-85
2022/10/20 05:43:34;;;;;;;0.20;0.10;;;;;;;;;;5020272;28;20045;-84
2022/10/20 05:46:01;;;;;;;0.20;0.10;;;;;;;;;;5020805;28;20481;-87
2022/10/20 05:48:27;;;;;;;0.20;0.10;;;;;;;;;;5019671;28;20384;-85
2022/10/20 05:50:53;;;;;;;0.20;0.10;;;;;;;;;;5014963;28;21454;-85
2022/10/20 05:53:19;;;;;;;0.20;0.10;;;;;;;;;;5003002;28;20079;-87
2022/10/20 05:55:45;;;;;;;0.22;0.13;;;;;;;;;;5023794;28;20065;-85
2022/10/20 05:58:11;;;;;;;0.20;0.10;;;;;;;;;;5007128;28;20056;-86
2022/10/20 06:00:41;;;;;;;0.20;0.10;;;;;;;;;;5021688;28;20040;-86
2022/10/20 06:03:07;;;;;;;0.20;0.10;;;;;;;;;;5001417;28;20132;-86
2022/10/20 06:05:34;;;;;;;0.20;0.10;;;;;;;;;;5001285;28;20095;-86
2022/10/20 06:08:00;;;;;;;0.20;0.10;;;;;;;;;;5015650;28;20049;-85
2022/10/20 06:10:26;;;;;;;0.20;0.10;;;;;;;;;;5024165;28;20120;-85
2022/10/20 06:12:52;;;;;;;0.20;0.10;;;;;;;;;;5006402;28;20086;-87
2022/10/20 06:15:18;;;;;;;0.20;0.10;;;;;;;;;;5005600;28;20053;-86
2022/10/20 06:17:46;;;;;;;0.20;0.00;;;;;;;;;;5004856;28;20045;-84
2022/10/20 06:20:12;;;;;;;0.20;0.10;;;;;;;;;;5039094;28;20044;-87
2022/10/20 06:22:38;;;;;;;0.20;0.10;;;;;;;;;;5004603;28;20124;-85
2022/10/20 06:25:04;;;;;;;0.20;0.08;;;;;;;;;;5040645;28;20310;-85
2022/10/20 06:27:30;;;;;;;0.20;0.10;;;;;;;;;;5039034;28;20048;-88
2022/10/20 06:29:56;;;;;;;0.20;0.10;;;;;;;;;;5013877;28;20124;-87
2022/10/20 06:32:22;;;;;;;0.20;0.10;;;;;;;;;;5038791;28;20044;-87
2022/10/20 06:34:52;;;;;;;0.20;0.10;;;;;;;;;;5035730;28;20490;-87
2022/10/20 06:37:18;;;;;;;0.20;0.10;;;;;;;;;;5017264;28;20457;-88
2022/10/20 06:39:44;;;;;;;0.20;0.10;;;;;;;;;;5033548;28;20037;-85
2022/10/20 06:42:10;;;;;;;0.20;0.10;;;;;;;;;;5004643;28;20045;-84
2022/10/20 06:44:37;;;;;;;0.20;0.10;;;;;;;;;;5005708;28;20044;-88
2022/10/20 06:47:06;;;;;;;0.20;0.10;;;;;;;;;;5018148;28;20083;-87
2022/10/20 06:49:32;;;;;;;0.20;0.10;;;;;;;;;;5005619;28;20391;-87
2022/10/20 06:51:58;;;;;;;0.20;0.10;;;;;;;;;;5034118;28;20079;-86
2022/10/20 06:54:24;;;;;;;0.20;0.10;;;;;;;;;;5020497;28;20046;-88
2022/10/20 06:56:53;;;;;;;0.20;0.10;;;;;;;;;;5021749;28;20037;-88
2022/10/20 06:59:19;;;;;;;0.20;0.05;;;;;;;;;;5025269;28;20522;-87
2022/10/20 07:01:45;;;;;;;0.20;0.10;;;;;;;;;;5021353;28;20052;-87
2022/10/20 07:04:15;;;;;;;0.20;0.10;;;;;;;;;;5005453;28;20045;-86
2022/10/20 07:06:42;;;;;;;0.20;0.10;;;;;;;;;;5034710;28;20045;-87
2022/10/20 07:09:12;;;;;;;0.20;0.10;;;;;;;;;;5037141;28;20100;-89
2022/10/20 07:11:45;;;;;;;0.20;0.10;;;;;;;;;;5018020;28;20044;-87
2022/10/20 07:14:11;;;;;;;;;;;;;;;;;;5031855;28;20088;-87
2022/10/20 07:16:40;;;;;;;0.20;0.10;;;;;;;;;;5025544;28;19923;-87
2022/10/20 07:19:06;;;;;;;0.20;0.10;;;;;;;;;;5026212;28;20124;-86
2022/10/20 07:21:35;;;;;;;0.20;0.10;;;;;;;;;;5026603;28;20047;-88
2022/10/20 07:24:01;;;;;;;0.20;0.10;;;;;;;;;;5039364;28;20063;-87
2022/10/20 07:26:28;;;;;;;0.20;0.10;;;;;;;;;;5025459;28;20040;-85
2022/10/20 07:28:56;;;;;;;0.20;0.10;;;;;;;;;;5026678;28;20426;-87
2022/10/20 07:31:25;;;;;;;0.20;0.10;;;;;;;;;;5022567;28;20037;-86
2022/10/20 07:33:51;;;;;;;0.20;0.10;;;;;;;;;;5036497;28;20089;-90
2022/10/20 07:36:28;;;;;;;0.20;0.10;;;;;;;;;;5006685;28;20091;-87
2022/10/20 07:38:57;;;;;;;0.20;0.10;;;;;;;;;;5022361;28;20037;-87
2022/10/20 07:41:24;;;;;;;0.20;0.10;;;;;;;;;;5008142;28;20597;-87
2022/10/20 07:43:50;;;;;;;0.20;0.10;;;;;;;;;;5027942;28;20037;-86
2022/10/20 07:46:16;;;;;;;0.20;0.10;;;;;;;;;;5037589;28;20107;-86
2022/10/20 07:48:42;;;;;;;0.20;0.10;;;;;;;;;;5007734;28;20036;-88
2022/10/20 07:51:21;;;;;;;0.20;0.10;;;;;;;;;;5011387;28;20041;-88
2022/10/20 07:56:30;;;;;;;0.20;0.10;;;;;;;;;;5040899;28;20200;-85
2022/10/20 07:58:56;;;;;;;0.20;0.10;;;;;;;;;;5021429;28;20044;-84
2022/10/20 08:01:22;;;;;;;0.20;0.10;;;;;;;;;;5025775;28;20051;-85
2022/10/20 08:03:48;;;;;;;0.20;0.10;;;;;;;;;;5039028;28;20033;-86
2022/10/20 08:06:17;;;;;;;0.20;0.10;;;;;;;;;;5011542;28;20513;-84
2022/10/20 08:08:45;;;;;;;0.20;0.10;;;;;;;;;;4999384;28;20519;-85
2022/10/20 08:11:11;;;;;;;0.20;0.10;;;;;;;;;;4999564;28;20034;-85
2022/10/20 08:13:39;;;;;;;0.20;0.10;;;;;;;;;;4994658;28;20133;-86
2022/10/20 08:16:06;;;;;;;0.20;0.10;;;;;;;;;;5017694;28;20103;-84
2022/10/20 08:18:32;;;;;;;0.20;0.10;;;;;;;;;;4998715;28;20038;-86
2022/10/20 08:21:13;;;;;;;0.20;0.10;;;;;;;;;;5002635;28;20069;-85
2022/10/20 08:23:43;;;;;;;0.20;0.10;;;;;;;;;;5014727;28;20053;-89
2022/10/20 08:26:10;;;;;;;0.20;0.10;;;;;;;;;;4995243;28;20076;-87
2022/10/20 08:28:45;;;;;;;0.20;0.10;;;;;;;;;;4997073;28;20160;-88
2022/10/20 08:34:10;;;;;;;0.20;0.10;;;;;;;;;;5019932;28;20041;-85
2022/10/20 08:36:49;;;;;;;0.20;0.05;;;;;;;;;;5036630;28;20515;-85
2022/10/20 08:39:21;;;;;;;0.20;0.10;;;;;;;;;;5002077;28;20124;-88
2022/10/20 08:41:48;;;;;;;0.20;0.10;;;;;;;;;;5008307;28;20045;-87
2022/10/20 08:44:21;;;;;;;0.20;0.10;;;;;;;;;;5018653;28;20389;-87
2022/10/20 08:46:50;;;;;;;0.20;0.10;;;;;;;;;;4999162;28;20045;-85
2022/10/20 08:49:30;;;;;;;0.20;0.10;;;;;;;;;;5002611;28;20045;-85
2022/10/20 08:51:57;;;;;;;0.20;0.10;;;;;;;;;;4996462;28;20443;-85
2022/10/20 08:54:23;;;;;;;0.20;0.10;;;;;;;;;;5002171;28;20033;-86
2022/10/20 08:56:50;;;;;;;0.20;0.10;;;;;;;;;;5013686;28;20406;-86
2022/10/20 08:59:27;;;;;;;0.20;0.10;;;;;;;;;;4998831;28;20677;-90
2022/10/20 09:02:06;;;;;;;0.20;0.10;;;;;;;;;;4997690;28;20042;-87
2022/10/20 09:04:46;;;;;;;0.20;0.10;;;;;;;;;;4992292;28;20053;-85
2022/10/20 09:07:47;;;;;;;0.20;0.10;;;;;;;;;;5016764;28;20424;-86
2022/10/20 09:10:16;;;;;;;0.20;0.10;;;;;;;;;;4994789;28;20060;-85
2022/10/20 09:12:46;;;;;;;0.20;0.10;;;;;;;;;;5011160;28;20570;-89
2022/10/20 09:15:14;;;;;;;0.20;0.10;;;;;;;;;;5017950;28;20041;-86
2022/10/20 09:17:51;;;;;;;0.20;0.10;;;;;;;;;;4998474;28;20041;-85
2022/10/20 09:20:32;;;;;;;0.20;0.10;;;;;;;;;;4998795;28;20041;-84
2022/10/20 09:23:01;;;;;;;0.20;0.10;;;;;;;;;;4995759;28;20407;-86
2022/10/20 09:25:27;;;;;;;0.20;0.10;;;;;;;;;;4998978;28;20052;-85
2022/10/20 09:27:56;;;;;;;0.20;0.10;;;;;;;;;;4996407;28;20041;-85
2022/10/20 09:30:22;;;;;;;0.20;0.10;;;;;;;;;;5009707;28;20041;-85
2022/10/20 09:32:49;;;;;;;0.20;0.10;;;;;;;;;;5009827;28;20050;-85
2022/10/20 09:35:29;;;;;;;0.20;0.10;;;;;;;;;;4998172;28;20030;-85
2022/10/20 09:38:16;;;;;;;0.20;0.10;;;;;;;;;;4995009;28;20057;-84
2022/10/20 09:41:05;;;;;;;0.20;0.10;;;;;;;;;;4994291;28;20041;-85
2022/10/20 09:43:47;;;;;;;0.50;0.32;;;;;;;;;;5016556;28;20037;-89
2022/10/20 09:46:17;;;;;;;0.20;0.10;;;;;;;;;;5014054;28;20045;-85
2022/10/20 09:48:49;;;;;;;0.20;0.10;;;;;;;;;;4996598;28;20067;-88
2022/10/20 09:51:26;;;;;;;0.20;0.10;;;;;;;;;;4999648;28;20448;-87
2022/10/20 09:53:54;;;;;;;0.20;0.10;;;;;;;;;;5014017;28;20037;-87
2022/10/20 09:56:35;;;;;;;0.20;0.10;;;;;;;;;;5014961;28;20032;-87
2022/10/20 09:59:02;;;;;;;0.20;0.10;;;;;;;;;;4995958;28;23483;-86
2022/10/20 10:01:28;;;;;;;0.20;0.10;;;;;;;;;;5018969;28;20314;-87
2022/10/20 10:03:58;;;;;;;0.20;0.10;;;;;;;;;;4994391;28;20146;-86
2022/10/20 10:06:41;;;;;;;0.20;0.10;;;;;;;;;;5022538;28;20054;-87
2022/10/20 10:09:26;;;;;;;0.20;0.10;;;;;;;;;;5010843;28;20069;-86
2022/10/20 10:12:08;;;;;;;0.20;0.10;;;;;;;;;;5000712;28;20487;-91
2022/10/20 10:14:35;;;;;;;0.20;0.10;;;;;;;;;;5011566;28;20125;-87
2022/10/20 10:17:07;;;;;;;0.20;0.10;;;;;;;;;;5012797;28;20080;-86
2022/10/20 10:19:33;;;;;;;0.20;0.10;;;;;;;;;;4984748;28;20124;-87
2022/10/20 10:22:01;;;;;;;0.20;0.10;;;;;;;;;;4999404;28;20273;-87
2022/10/20 10:24:47;;;;;;;0.20;0.10;;;;;;;;;;5014663;28;20069;-85
2022/10/20 10:27:30;;;;;;;0.20;0.10;;;;;;;;;;5003287;28;20036;-87
2022/10/20 10:30:16;;;;;;;0.20;0.10;;;;;;;;;;4992308;28;20041;-88
2022/10/20 10:32:46;;;;;;;0.20;0.10;;;;;;;;;;5012656;28;20766;-86
2022/10/20 10:35:27;;;;;;;0.20;0.10;;;;;;;;;;5000030;28;20037;-85
2022/10/20 10:37:53;;;;;;;0.20;0.10;;;;;;;;;;5000082;28;20044;-85
2022/10/20 10:40:21;;;;;;;0.20;0.08;;;;;;;;;;5016099;28;20452;-86
2022/10/20 10:42:50;;;;;;;0.20;0.10;;;;;;;;;;5017958;28;20037;-87
2022/10/20 10:45:19;;;;;;;0.20;0.10;;;;;;;;;;5001820;28;20554;-86
2022/10/20 10:47:58;;;;;;;0.20;0.10;;;;;;;;;;5002587;28;20040;-88
2022/10/20 10:50:39;;;;;;;0.20;0.10;;;;;;;;;;4996514;28;20304;-85
2022/10/20 10:53:08;;;;;;;0.20;0.10;;;;;;;;;;5014907;28;20045;-84
2022/10/20 10:55:43;;;;;;;0.20;0.10;;;;;;;;;;4998415;28;21580;-85
2022/10/20 10:58:18;;;;;;;0.20;0.10;;;;;;;;;;5008950;28;21212;-87
2022/10/20 11:00:51;;;;;;;0.20;0.10;;;;;;;;;;5018038;28;20044;-86
2022/10/20 11:03:23;;;;;;;0.20;0.10;;;;;;;;;;5007184;28;20049;-85
2022/10/20 11:06:00;;;;;;;0.20;0.10;;;;;;;;;;5000524;28;20510;-83
2022/10/20 11:08:41;;;;;;;0.20;0.10;;;;;;;;;;4997018;28;20038;-84
2022/10/20 11:11:22;;;;;;;0.20;0.10;;;;;;;;;;5001797;28;20124;-87
2022/10/20 11:13:55;;;;;;;0.20;0.10;;;;;;;;;;4997828;28;20037;-84
2022/10/20 11:16:36;;;;;;;0.20;0.10;;;;;;;;;;4995164;28;20033;-85
2022/10/20 11:19:30;;;;;;;0.20;0.10;;;;;;;;;;5002925;28;20373;-88
2022/10/20 11:22:13;;;;;;;0.20;0.10;;;;;;;;;;5014372;28;20049;-84
2022/10/20 11:24:41;;;;;;;0.20;0.10;;;;;;;;;;4998725;28;20046;-86
2022/10/20 11:27:12;;;;;;;0.20;0.10;;;;;;;;;;4992172;28;20049;-86
2022/10/20 11:29:45;;;;;;;0.20;0.10;;;;;;;;;;5015762;28;20527;-86
2022/10/20 11:32:11;;;;;;;0.20;0.10;;;;;;;;;;5015791;28;20052;-85
2022/10/20 11:34:46;;;;;;;0.20;0.10;;;;;;;;;;4999039;28;20041;-86
2022/10/20 11:37:12;;;;;;;0.20;0.10;;;;;;;;;;4998866;28;20038;-86
2022/10/20 11:39:58;;;;;;;0.20;0.10;;;;;;;;;;4998194;28;20038;-87
2022/10/20 11:42:25;;;;;;;0.20;0.10;;;;;;;;;;4963108;28;20100;-86
2022/10/20 11:44:51;;;;;;;0.20;0.10;;;;;;;;;;5006199;28;20135;-86
2022/10/20 11:47:20;;;;;;;0.20;0.10;;;;;;;;;;4987185;28;20033;-85
2022/10/20 11:49:47;;;;;;;0.20;0.10;;;;;;;;;;5015580;28;20045;-85
2022/10/20 11:52:31;;;;;;;0.20;0.10;;;;;;;;;;4999134;28;20033;-87
2022/10/20 11:55:04;;;;;;;0.20;0.10;;;;;;;;;;5014747;28;20400;-87
2022/10/20 11:57:30;;;;;;;0.20;0.10;;;;;;;;;;5016332;28;20053;-87
2022/10/20 12:00:05;;;;;;;0.20;0.10;;;;;;;;;;5005632;28;20045;-86
2022/10/20 12:02:31;;;;;;;0.20;0.10;;;;;;;;;;5004789;28;20108;-86
2022/10/20 12:05:20;;;;;;;0.20;0.10;;;;;;;;;;5005351;28;20075;-86
2022/10/20 12:07:46;;;;;;;0.20;0.10;;;;;;;;;;5013819;28;20080;-86
2022/10/20 12:10:28;;;;;;;0.20;0.10;;;;;;;;;;5014696;28;20037;-84
2022/10/20 12:13:07;;;;;;;0.20;0.10;;;;;;;;;;5004181;28;20066;-87
2022/10/20 12:15:33;;;;;;;0.20;0.10;;;;;;;;;;5018321;28;20570;-85
2022/10/20 12:18:06;;;;;;;0.20;0.10;;;;;;;;;;4998427;28;20056;-86
2022/10/20 12:20:35;;;;;;;0.20;0.10;;;;;;;;;;5013363;28;20045;-86
2022/10/20 12:23:01;;;;;;;0.20;0.10;;;;;;;;;;5016158;28;20077;-85
2022/10/20 12:25:38;;;;;;;0.20;0.10;;;;;;;;;;5002537;28;20495;-85
2022/10/20 12:28:19;;;;;;;0.20;0.10;;;;;;;;;;4999943;28;20068;-85
2022/10/20 12:31:05;;;;;;;0.20;0.10;;;;;;;;;;5001365;28;20064;-85
2022/10/20 12:33:39;;;;;;;0.20;0.10;;;;;;;;;;5001098;28;20370;-85
2022/10/20 12:36:20;;;;;;;0.20;0.10;;;;;;;;;;4999406;28;20064;-86
2022/10/20 12:39:06;;;;;;;0.20;0.10;;;;;;;;;;4995543;28;20139;-84
2022/10/20 12:41:34;;;;;;;0.20;0.10;;;;;;;;;;5016601;28;20049;-87
2022/10/20 12:44:23;;;;;;;0.20;0.10;;;;;;;;;;4994569;28;20598;-87
2022/10/20 12:46:54;;;;;;;0.20;0.10;;;;;;;;;;4992461;28;20111;-85
2022/10/20 12:49:27;;;;;;;0.20;0.10;;;;;;;;;;4997177;28;20434;-85
2022/10/20 12:51:54;;;;;;;0.20;0.10;;;;;;;;;;4995876;28;20487;-86
2022/10/20 12:54:23;;;;;;;0.20;0.10;;;;;;;;;;4997176;28;20038;-87
2022/10/20 12:56:50;;;;;;;0.20;0.10;;;;;;;;;;5014723;28;20053;-86
2022/10/20 12:59:22;;;;;;;0.20;0.10;;;;;;;;;;5003063;28;20045;-87
2022/10/20 13:02:07;;;;;;;0.20;0.20;;;;;;;;;;4996773;28;20045;-85
2022/10/20 13:04:56;;;;;;;0.20;0.10;;;;;;;;;;4995826;28;20056;-86
2022/10/20 13:07:41;;;;;;;0.20;0.10;;;;;;;;;;4999883;28;20571;-87
2022/10/20 13:10:26;;;;;;;0.20;0.10;;;;;;;;;;5015398;28;20069;-86
2022/10/20 13:13:13;;;;;;;0.20;0.10;;;;;;;;;;4996480;28;20065;-85
2022/10/20 13:15:42;;;;;;;0.20;0.10;;;;;;;;;;4973413;28;20517;-85
2022/10/20 13:18:11;;;;;;;0.20;0.10;;;;;;;;;;4996161;28;20178;-85
2022/10/20 13:20:55;;;;;;;0.20;0.10;;;;;;;;;;5002215;28;20518;-83
2022/10/20 13:23:35;;;;;;;0.20;0.10;;;;;;;;;;5015371;28;20048;-85
2022/10/20 13:26:20;;;;;;;0.20;0.10;;;;;;;;;;5014560;28;20045;-85
2022/10/20 13:28:47;;;;;;;0.20;0.10;;;;;;;;;;5013461;28;20056;-85
2022/10/20 13:31:29;;;;;;;0.20;0.10;;;;;;;;;;4997789;28;20069;-85
2022/10/20 13:34:03;;;;;;;0.20;0.10;;;;;;;;;;5009303;28;20038;-84
2022/10/20 13:36:52;;;;;;;0.20;0.10;;;;;;;;;;5017523;28;20403;-89
2022/10/20 13:39:27;;;;;;;0.20;0.10;;;;;;;;;;4996982;28;20045;-85
2022/10/20 13:42:15;;;;;;;0.20;0.10;;;;;;;;;;4995833;28;20045;-84
2022/10/20 13:44:58;;;;;;;0.20;0.20;;;;;;;;;;4994779;28;20107;-86
2022/10/20 13:47:32;;;;;;;0.20;0.10;;;;;;;;;;4999295;28;20033;-86
2022/10/20 13:50:10;;;;;;;0.20;0.10;;;;;;;;;;5014834;28;20065;-85
2022/10/20 13:52:39;;;;;;;0.20;0.10;;;;;;;;;;4999113;28;20041;-88
2022/10/20 13:55:16;;;;;;;0.20;0.10;;;;;;;;;;5031582;22;20046;-87
2022/10/20 13:58:18;;;;;;;0.20;0.10;;;;;;;;;;4996166;28;20053;-88
2022/10/20 14:01:00;;;;;;;0.20;0.10;;;;;;;;;;4980912;28;20050;-90
2022/10/20 14:03:26;;;;;;;0.28;0.20;;;;;;;;;;5000086;28;20137;-89
2022/10/20 14:06:01;;;;;;;0.20;0.10;;;;;;;;;;4997704;28;20038;-89
2022/10/20 14:08:27;;;;;;;0.20;0.10;;;;;;;;;;5004572;28;20069;-89
2022/10/20 14:10:53;;;;;;;0.20;0.10;;;;;;;;;;4986522;28;20491;-90
2022/10/20 14:13:21;;;;;;;0.20;0.10;;;;;;;;;;4994313;28;20045;-87
2022/10/20 14:15:53;;;;;;;0.20;0.10;;;;;;;;;;5005197;28;20041;-89
2022/10/20 14:18:26;;;;;;;0.20;0.10;;;;;;;;;;4995973;28;20507;-90
2022/10/20 14:20:54;;;;;;;0.20;0.10;;;;;;;;;;5000471;28;20125;-88
2022/10/20 14:23:20;;;;;;;0.30;0.30;;;;;;;;;;4995442;28;20033;-86
2022/10/20 14:25:48;;;;;;;0.20;0.10;;;;;;;;;;5013483;28;20046;-88
2022/10/20 14:28:17;;;;;;;0.20;0.10;;;;;;;;;;5005961;28;20045;-87
2022/10/20 14:30:43;;;;;;;0.20;0.10;;;;;;;;;;5000879;28;20033;-87
2022/10/20 14:33:14;;;;;;;0.20;0.10;;;;;;;;;;4985078;28;20038;-87
2022/10/20 14:35:43;;;;;;;0.20;0.10;;;;;;;;;;5004018;28;20471;-89
2022/10/20 14:38:20;;;;;;;0.20;0.10;;;;;;;;;;4998378;28;20100;-88
2022/10/20 14:40:50;;;;;;;0.20;0.10;;;;;;;;;;5019342;28;20041;-90
2022/10/20 14:43:18;;;;;;;0.20;0.10;;;;;;;;;;4998119;28;20130;-88
2022/10/20 14:46:10;;;;;;;0.20;0.10;;;;;;;;;;5001853;28;20558;-89
2022/10/20 14:48:38;;;;;;;0.20;0.10;;;;;;;;;;4996448;28;20050;-88
2022/10/20 14:51:23;;;;;;;0.20;0.10;;;;;;;;;;4999467;28;20041;-89
2022/10/20 14:53:49;;;;;;;0.20;0.10;;;;;;;;;;5006248;28;20034;-89
2022/10/20 14:56:24;;;;;;;0.20;0.10;;;;;;;;;;4989600;28;20029;-89
2022/10/20 14:58:58;;;;;;;0.20;0.08;;;;;;;;;;5033615;28;20053;-89
2022/10/20 15:01:31;;;;;;;0.20;0.10;;;;;;;;;;5000175;28;20037;-87
2022/10/20 15:04:04;;;;;;;0.20;0.10;;;;;;;;;;5000093;28;20053;-85
2022/10/20 15:06:30;;;;;;;0.35;0.20;;;;;;;;;;5000799;28;20041;-87
2022/10/20 15:08:56;;;;;;;0.20;0.10;;;;;;;;;;4985776;28;20065;-86